Time;durP1;ratioP1;P1;durP2;ratioP2;P2;SDS_P1;SDS_P2;PMS_P1;PMS_P2;Temp;Humidity;BMP_temperature;BMP_pressure;BME280_temperature;BME280_humidity;BME280_pressure;Samples;Min_cycle;Max_cycle;Signal;HPM_P1;HPM_P2
2022/07/19 00:01:10;;;;;;;4.68;1.40;;;;;;;23.34;32.01;100142.28;4498253;31;35082;-59
2022/07/19 00:03:38;;;;;;;2.78;1.27;;;;;;;23.29;32.09;100136.56;4499793;31;33761;-60
2022/07/19 00:06:06;;;;;;;4.35;1.20;;;;;;;23.19;32.33;100137.69;4495226;31;34461;-59
2022/07/19 00:08:33;;;;;;;3.60;1.25;;;;;;;23.22;32.14;100141.94;4498559;31;33842;-61
2022/07/19 00:11:01;;;;;;;3.75;1.35;;;;;;;23.32;32.02;100137.03;4498183;31;32835;-61
2022/07/19 00:13:29;;;;;;;2.50;1.30;;;;;;;23.43;31.96;100147.47;4499047;31;34665;-61
2022/07/19 00:15:56;;;;;;;3.87;1.45;;;;;;;23.37;32.07;100144.66;4500470;31;32732;-60
2022/07/19 00:18:24;;;;;;;2.60;1.42;;;;;;;23.24;32.55;100146.16;4500243;31;34236;-60
2022/07/19 00:20:51;;;;;;;2.80;1.30;;;;;;;23.23;32.72;100138.16;4497178;31;32812;-60
2022/07/19 00:23:19;;;;;;;4.22;1.20;;;;;;;23.16;32.76;100148.97;4484409;32;33759;-60
2022/07/19 00:25:47;;;;;;;2.90;1.20;;;;;;;23.13;32.56;100149.34;4496846;31;33603;-61
2022/07/19 00:28:14;;;;;;;3.40;1.20;;;;;;;23.17;32.42;100139.75;4499437;31;32593;-63
2022/07/19 00:30:42;;;;;;;2.30;0.90;;;;;;;22.99;32.69;100140.12;4495885;31;34259;-60
2022/07/19 00:33:10;;;;;;;3.83;1.42;;;;;;;22.93;32.77;100132.66;4495644;31;34988;-60
2022/07/19 00:35:38;;;;;;;2.33;1.05;;;;;;;22.94;32.46;100137.06;4498479;31;34912;-60
2022/07/19 00:38:08;;;;;;;5.22;1.42;;;;;;;23.13;32.14;100137.59;4497363;31;33803;-60
2022/07/19 00:40:37;;;;;;;2.90;1.30;;;;;;;23.18;32.33;100141.47;4482266;31;34699;-62
2022/07/19 00:43:04;;;;;;;3.60;1.30;;;;;;;23.27;32.05;100147.66;4494069;31;33500;-60
2022/07/19 00:45:32;;;;;;;2.80;1.50;;;;;;;23.24;32.04;100139.84;4495554;31;32757;-60
2022/07/19 00:48:00;;;;;;;3.45;1.30;;;;;;;23.34;31.94;100137.69;4498761;31;34075;-61
2022/07/19 00:50:28;;;;;;;4.50;1.33;;;;;;;23.30;32.09;100143.72;4494454;31;31918;-59
2022/07/19 00:53:02;;;;;;;3.75;1.25;;;;;;;23.21;32.60;100151.12;4494045;31;33809;-62
2022/07/19 00:55:31;;;;;;;2.87;1.50;;;;;;;23.24;32.34;100140.72;4497941;31;33749;-60
2022/07/19 00:58:00;;;;;;;4.00;1.37;;;;;;;23.34;32.18;100148.63;4498152;31;33881;-61
2022/07/19 01:00:31;;;;;;;2.75;1.42;;;;;;;23.40;32.06;100142.41;4491378;31;34412;-62
2022/07/19 01:02:59;;;;;;;4.00;2.05;;;;;;;23.32;32.16;100139.75;4495254;31;33292;-60
2022/07/19 01:05:27;;;;;;;6.62;1.40;;;;;;;23.16;32.33;100146.25;4499574;31;33893;-61
2022/07/19 01:07:54;;;;;;;3.12;1.40;;;;;;;23.14;32.56;100142.00;4498412;31;33736;-62
2022/07/19 01:10:22;;;;;;;2.83;1.33;;;;;;;22.95;33.03;100140.66;4498446;31;34209;-61
2022/07/19 01:12:50;;;;;;;3.00;1.30;;;;;;;22.87;33.12;100135.25;4499473;31;32431;-61
2022/07/19 01:15:25;;;;;;;3.12;1.20;;;;;;;22.98;32.99;100132.09;4497792;31;34107;-61
2022/07/19 01:17:53;;;;;;;4.78;1.52;;;;;;;22.98;32.94;100135.66;4498635;31;34050;-59
2022/07/19 01:20:22;;;;;;;4.53;1.27;;;;;;;22.87;32.87;100135.25;4495317;31;33971;-62
2022/07/19 01:22:57;;;;;;;3.78;1.20;;;;;;;22.83;33.02;100134.78;4499472;31;34692;-60
2022/07/19 01:25:26;;;;;;;5.12;1.30;;;;;;;22.64;33.61;100135.28;4499809;31;33744;-61
2022/07/19 01:27:54;;;;;;;4.32;1.67;;;;;;;22.68;33.25;100128.44;4500696;31;33987;-61
2022/07/19 01:30:24;;;;;;;2.17;1.35;;;;;;;22.59;33.48;100133.09;4499042;31;34176;-59
2022/07/19 01:32:53;;;;;;;2.60;1.20;;;;;;;22.62;33.51;100129.16;4501008;31;34471;-60
2022/07/19 01:35:22;;;;;;;4.65;1.30;;;;;;;22.70;33.32;100129.09;4500932;31;34142;-60
2022/07/19 01:37:50;;;;;;;2.15;1.33;;;;;;;22.76;33.21;100133.78;4500493;31;34344;-59
2022/07/19 01:40:18;;;;;;;3.42;1.27;;;;;;;22.75;33.17;100132.94;4495314;31;33986;-59
2022/07/19 01:42:46;;;;;;;4.55;1.80;;;;;;;22.81;33.15;100127.81;4498005;31;34530;-59
2022/07/19 01:45:14;;;;;;;5.32;1.35;;;;;;;22.68;33.44;100123.81;4499223;31;33623;-58
2022/07/19 01:47:42;;;;;;;4.12;1.27;;;;;;;22.71;33.28;100115.25;4501232;31;33763;-58
2022/07/19 01:50:12;;;;;;;6.75;1.75;;;;;;;22.67;33.33;100119.41;4499440;31;32763;-60
2022/07/19 01:52:40;;;;;;;3.55;1.23;;;;;;;22.71;33.31;100123.44;4501150;31;32827;-59
2022/07/19 01:55:16;;;;;;;11.43;1.73;;;;;;;22.59;33.54;100121.34;4499156;31;33709;-60
2022/07/19 01:57:44;;;;;;;7.20;1.50;;;;;;;22.62;33.56;100120.97;4496888;31;33703;-61
2022/07/19 02:00:12;;;;;;;10.10;1.73;;;;;;;22.62;33.56;100116.38;4497310;31;33008;-61
2022/07/19 02:02:42;;;;;;;7.25;1.60;;;;;;;22.50;33.70;100120.56;4499088;31;33641;-58
2022/07/19 02:05:09;;;;;;;5.62;1.58;;;;;;;22.57;33.70;100116.09;4501495;31;34152;-58
2022/07/19 02:07:39;;;;;;;6.43;1.42;;;;;;;22.42;34.08;100126.09;4501250;31;33907;-59
2022/07/19 02:10:08;;;;;;;2.67;1.33;;;;;;;22.37;33.93;100125.78;4500228;31;34822;-61
2022/07/19 02:12:36;;;;;;;9.18;1.20;;;;;;;22.41;33.88;100125.25;4498032;31;33467;-59
2022/07/19 02:15:05;;;;;;;4.15;1.48;;;;;;;22.22;34.43;100118.41;4497023;31;34887;-59
2022/07/19 02:17:33;;;;;;;3.58;1.45;;;;;;;22.33;34.39;100126.13;4494668;31;33833;-59
2022/07/19 02:20:01;;;;;;;7.43;1.30;;;;;;;22.29;34.34;100130.25;4489238;31;35256;-59
2022/07/19 02:22:28;;;;;;;2.95;1.30;;;;;;;22.14;34.57;100134.75;4499893;31;32221;-59
2022/07/19 02:24:56;;;;;;;4.80;1.65;;;;;;;22.08;34.85;100139.03;4500445;31;33344;-59
2022/07/19 02:27:23;;;;;;;5.93;1.25;;;;;;;22.05;34.91;100142.16;4499266;31;32857;-59
2022/07/19 02:29:51;;;;;;;4.30;1.50;;;;;;;22.07;34.90;100144.69;4500179;31;35669;-60
2022/07/19 02:32:19;;;;;;;12.07;2.20;;;;;;;22.05;34.54;100136.72;4501189;31;34495;-60
2022/07/19 02:34:46;;;;;;;4.05;1.25;;;;;;;22.01;34.65;100135.34;4497775;31;32550;-60
2022/07/19 02:37:14;;;;;;;4.28;1.15;;;;;;;21.84;35.06;100131.03;4499175;31;33895;-59
2022/07/19 02:39:42;;;;;;;4.07;1.67;;;;;;;21.86;34.99;100132.56;4501081;31;33725;-59
2022/07/19 02:42:09;;;;;;;8.60;1.83;;;;;;;21.89;34.82;100134.03;4500349;31;34608;-60
2022/07/19 02:44:37;;;;;;;6.57;1.80;;;;;;;21.79;34.98;100136.16;4499932;31;33768;-59
2022/07/19 02:47:05;;;;;;;8.55;1.98;;;;;;;21.81;34.91;100134.09;4500834;31;35250;-58
2022/07/19 02:49:32;;;;;;;10.38;2.00;;;;;;;21.87;34.95;100136.97;4500122;31;33823;-58
2022/07/19 02:52:00;;;;;;;12.55;2.75;;;;;;;21.89;34.81;100138.66;4499864;31;35076;-58
2022/07/19 02:54:27;;;;;;;8.13;1.90;;;;;;;21.77;34.99;100135.50;4498614;31;34942;-60
2022/07/19 02:56:55;;;;;;;8.98;1.60;;;;;;;21.93;34.79;100140.00;4496476;31;34690;-59
2022/07/19 02:59:23;;;;;;;6.60;1.60;;;;;;;21.94;34.69;100128.91;4498799;31;33994;-61
2022/07/19 03:01:50;;;;;;;4.90;1.70;;;;;;;22.09;34.54;100135.31;4500803;31;33573;-59
2022/07/19 03:04:18;;;;;;;7.80;2.53;;;;;;;22.06;34.52;100130.22;4500451;31;34727;-58
2022/07/19 03:06:46;;;;;;;8.23;1.62;;;;;;;22.17;34.41;100139.03;4500684;31;34883;-59
2022/07/19 03:09:13;;;;;;;5.50;1.55;;;;;;;22.16;34.74;100132.75;4498635;31;34176;-59
2022/07/19 03:11:41;;;;;;;5.90;1.65;;;;;;;22.08;34.74;100130.88;4499452;31;33585;-58
2022/07/19 03:14:08;;;;;;;4.05;1.12;;;;;;;22.20;34.84;100138.69;4495193;31;33752;-59
2022/07/19 03:16:36;;;;;;;3.22;1.35;;;;;;;22.25;34.60;100139.84;4498355;31;34017;-59
2022/07/19 03:19:04;;;;;;;6.25;1.48;;;;;;;22.25;34.63;100130.81;4500498;31;34077;-60
2022/07/19 03:21:33;;;;;;;4.97;1.60;;;;;;;22.12;34.27;100141.41;4500399;31;34690;-60
2022/07/19 03:24:01;;;;;;;4.62;1.45;;;;;;;22.15;34.09;100141.06;4500044;31;33714;-60
2022/07/19 03:26:28;;;;;;;5.20;1.35;;;;;;;22.21;33.97;100143.94;4497604;31;34412;-60
2022/07/19 03:28:56;;;;;;;4.15;1.50;;;;;;;22.20;33.90;100144.12;4499024;31;33426;-59
2022/07/19 03:31:24;;;;;;;4.85;1.83;;;;;;;22.15;33.81;100150.09;4499088;31;32426;-59
2022/07/19 03:33:51;;;;;;;3.15;1.17;;;;;;;22.18;33.87;100152.47;4486187;31;32602;-60
2022/07/19 03:36:19;;;;;;;3.42;1.30;;;;;;;22.30;33.84;100150.19;4494872;31;33814;-59
2022/07/19 03:38:47;;;;;;;4.15;1.60;;;;;;;22.25;34.21;100158.09;4500033;31;35209;-59
2022/07/19 03:41:14;;;;;;;2.40;1.10;;;;;;;22.13;34.54;100159.50;4497071;31;32141;-60
2022/07/19 03:43:42;;;;;;;3.90;1.42;;;;;;;22.05;34.68;100153.06;4499222;31;32568;-61
2022/07/19 03:46:10;;;;;;;4.00;1.20;;;;;;;22.13;34.50;100160.34;4500074;31;35291;-59
2022/07/19 03:48:37;;;;;;;3.85;1.50;;;;;;;22.14;34.69;100166.63;4497494;31;34162;-59
2022/07/19 03:51:05;;;;;;;3.22;1.45;;;;;;;22.22;34.54;100163.91;4499557;31;32299;-61
2022/07/19 03:53:34;;;;;;;6.55;1.90;;;;;;;22.23;34.46;100171.88;4498325;31;35144;-59
2022/07/19 03:56:02;;;;;;;5.22;1.40;;;;;;;22.32;34.19;100173.53;4498379;31;33959;-60
2022/07/19 03:58:29;;;;;;;2.58;1.35;;;;;;;22.45;34.00;100175.66;4497323;31;34310;-59
2022/07/19 04:00:57;;;;;;;7.65;1.55;;;;;;;22.44;33.81;100168.53;4500414;31;33639;-61
2022/07/19 04:03:25;;;;;;;3.87;1.50;;;;;;;22.41;33.76;100176.22;4499377;31;33613;-62
2022/07/19 04:05:53;;;;;;;4.15;1.65;;;;;;;22.36;33.75;100168.56;4499317;31;32630;-58
2022/07/19 04:08:20;;;;;;;4.30;1.87;;;;;;;22.40;33.84;100180.78;4499315;31;35323;-61
2022/07/19 04:10:48;;;;;;;3.08;1.05;;;;;;;22.43;33.84;100187.78;4498589;31;33516;-61
2022/07/19 04:13:16;;;;;;;2.97;1.30;;;;;;;22.41;34.02;100185.25;4496545;31;34874;-59
2022/07/19 04:15:43;;;;;;;2.62;1.05;;;;;;;22.55;33.91;100180.88;4499526;31;33763;-60
2022/07/19 04:18:13;;;;;;;3.70;1.55;;;;;;;22.66;34.03;100179.59;4500565;31;33417;-59
2022/07/19 04:20:41;;;;;;;3.80;1.35;;;;;;;22.61;34.27;100180.16;4500129;31;33366;-59
2022/07/19 04:23:08;;;;;;;2.40;1.30;;;;;;;22.67;34.22;100182.16;4499825;31;33783;-60
2022/07/19 04:25:36;;;;;;;4.65;1.60;;;;;;;22.82;33.75;100190.38;4496033;31;32909;-60
2022/07/19 04:28:04;;;;;;;6.12;1.27;;;;;;;22.69;33.83;100190.13;4498510;31;34282;-59
2022/07/19 04:30:31;;;;;;;5.55;1.85;;;;;;;22.74;33.53;100187.72;4497128;31;34330;-62
2022/07/19 04:33:00;;;;;;;3.72;1.50;;;;;;;22.75;33.25;100186.69;4499523;31;32553;-60
2022/07/19 04:35:27;;;;;;;3.22;1.35;;;;;;;22.83;33.45;100191.25;4498725;31;32738;-62
2022/07/19 04:37:55;;;;;;;4.95;1.60;;;;;;;22.92;33.26;100192.84;4498709;31;32543;-60
2022/07/19 04:40:23;;;;;;;5.87;1.30;;;;;;;23.01;33.10;100194.50;4499893;31;34526;-60
2022/07/19 04:42:50;;;;;;;5.03;1.98;;;;;;;23.15;32.93;100192.87;4497865;31;35069;-61
2022/07/19 04:45:18;;;;;;;5.28;1.20;;;;;;;23.29;32.88;100193.91;4499770;31;33896;-59
2022/07/19 04:47:46;;;;;;;6.90;1.55;;;;;;;23.38;32.74;100188.19;4497275;31;33978;-61
2022/07/19 04:50:13;;;;;;;3.40;1.25;;;;;;;23.44;32.51;100190.16;4498673;31;34965;-59
2022/07/19 04:52:41;;;;;;;2.78;1.37;;;;;;;23.58;32.19;100190.34;4495263;31;33230;-61
2022/07/19 04:55:09;;;;;;;2.35;1.10;;;;;;;23.76;31.91;100192.75;4498047;31;34102;-61
2022/07/19 04:57:37;;;;;;;4.35;1.00;;;;;;;23.76;31.96;100190.00;4485048;31;32527;-62
2022/07/19 05:00:06;;;;;;;2.87;1.42;;;;;;;23.92;31.75;100192.53;4501425;31;33806;-62
2022/07/19 05:02:34;;;;;;;3.53;1.40;;;;;;;24.06;31.51;100186.19;4497258;31;33732;-62
2022/07/19 05:05:03;;;;;;;3.83;1.42;;;;;;;24.01;31.79;100185.91;4497991;31;34147;-62
2022/07/19 05:07:31;;;;;;;5.32;1.20;;;;;;;24.27;31.44;100192.72;4500340;31;32947;-62
2022/07/19 05:09:59;;;;;;;3.30;1.40;;;;;;;24.37;31.60;100183.19;4501292;31;33598;-62
2022/07/19 05:12:27;;;;;;;6.28;1.75;;;;;;;24.47;31.51;100193.00;4501219;31;32680;-60
2022/07/19 05:14:55;;;;;;;3.03;1.33;;;;;;;24.70;30.97;100193.66;4499911;31;34320;-60
2022/07/19 05:17:23;;;;;;;5.85;1.40;;;;;;;24.85;29.97;100191.69;4497606;31;33864;-60
2022/07/19 05:19:50;;;;;;;3.83;1.60;;;;;;;24.91;29.79;100189.19;4498763;31;32744;-60
2022/07/19 05:22:18;;;;;;;6.03;1.60;;;;;;;25.06;30.21;100189.97;4498931;31;33377;-61
2022/07/19 05:24:45;;;;;;;6.10;1.45;;;;;;;25.03;30.56;100193.09;4501308;31;34264;-58
2022/07/19 05:27:13;;;;;;;8.02;1.83;;;;;;;25.18;31.24;100190.31;4499465;31;32550;-60
2022/07/19 05:29:41;;;;;;;4.22;1.50;;;;;;;25.42;31.05;100187.09;4500838;31;32402;-61
2022/07/19 05:32:08;;;;;;;5.40;1.40;;;;;;;25.57;30.67;100187.00;4499865;31;34001;-61
2022/07/19 05:34:36;;;;;;;3.30;1.30;;;;;;;25.53;31.84;100185.72;4485550;31;33565;-62
2022/07/19 05:37:04;;;;;;;5.50;1.55;;;;;;;25.51;32.36;100185.87;4489340;31;34023;-61
2022/07/19 05:39:32;;;;;;;4.45;1.70;;;;;;;25.70;31.84;100187.06;4494508;31;32333;-61
2022/07/19 05:41:59;;;;;;;4.90;1.90;;;;;;;25.75;32.59;100183.72;4499286;31;32299;-59
2022/07/19 05:44:27;;;;;;;5.00;1.87;;;;;;;25.86;32.42;100180.41;4501162;31;35115;-60
2022/07/19 05:46:54;;;;;;;6.53;1.85;;;;;;;25.87;32.42;100184.84;4500657;31;34109;-60
2022/07/19 05:49:22;;;;;;;5.12;1.60;;;;;;;25.68;31.55;100185.56;4497084;31;34655;-60
2022/07/19 05:51:50;;;;;;;6.70;2.60;;;;;;;25.76;31.49;100182.66;4500129;31;34667;-61
2022/07/19 05:54:17;;;;;;;4.57;1.92;;;;;;;25.67;31.77;100190.19;4497058;31;32889;-60
2022/07/19 05:56:45;;;;;;;4.57;1.60;;;;;;;25.75;31.56;100187.31;4495198;31;34130;-59
2022/07/19 05:59:13;;;;;;;4.68;1.60;;;;;;;25.90;31.36;100189.09;4501020;31;34473;-61
2022/07/19 06:01:41;;;;;;;4.87;2.03;;;;;;;26.02;30.62;100184.72;4499205;31;34322;-59
2022/07/19 06:04:09;;;;;;;4.32;1.45;;;;;;;26.17;31.20;100187.31;4497346;31;32864;-60
2022/07/19 06:06:36;;;;;;;5.70;1.48;;;;;;;26.11;31.10;100178.00;4495292;31;34282;-60
2022/07/19 06:09:05;;;;;;;6.87;1.90;;;;;;;26.29;31.02;100176.56;4498571;31;34721;-59
2022/07/19 06:11:32;;;;;;;6.62;1.70;;;;;;;26.28;31.91;100180.38;4499953;31;34025;-60
2022/07/19 06:14:00;;;;;;;3.33;1.33;;;;;;;26.42;30.40;100188.44;4493583;31;34059;-59
2022/07/19 06:16:28;;;;;;;5.50;1.70;;;;;;;26.35;30.02;100183.97;4496905;31;32788;-59
2022/07/19 06:18:56;;;;;;;7.57;1.60;;;;;;;26.54;29.85;100180.47;4500984;31;34618;-60
2022/07/19 06:21:24;;;;;;;8.00;1.62;;;;;;;26.42;30.01;100188.44;4499922;31;32431;-59
2022/07/19 06:23:51;;;;;;;8.45;1.62;;;;;;;26.60;30.16;100185.13;4501051;31;33982;-60
2022/07/19 06:26:19;;;;;;;5.97;1.52;;;;;;;26.44;30.00;100180.84;4493775;31;33894;-61
2022/07/19 06:28:47;;;;;;;3.15;1.50;;;;;;;26.71;28.91;100186.44;4491034;31;33214;-59
2022/07/19 06:31:16;;;;;;;3.45;1.40;;;;;;;26.65;29.05;100188.09;4490828;31;33248;-59
2022/07/19 06:33:47;;;;;;;4.75;1.60;;;;;;;26.98;27.81;100187.28;4495531;31;33443;-61
2022/07/19 06:36:15;;;;;;;4.12;1.40;;;;;;;26.87;28.51;100190.63;4494188;31;33945;-59
2022/07/19 06:38:43;;;;;;;7.43;2.10;;;;;;;27.26;27.20;100194.50;4495199;31;34534;-59
2022/07/19 06:41:11;;;;;;;3.08;1.40;;;;;;;27.02;28.81;100188.53;4492139;31;34879;-59
2022/07/19 06:43:39;;;;;;;4.05;1.33;;;;;;;27.22;28.90;100191.28;4499773;31;33248;-59
2022/07/19 06:46:07;;;;;;;5.25;1.50;;;;;;;27.31;28.12;100194.69;4486649;31;33619;-59
2022/07/19 06:48:35;;;;;;;8.27;1.77;;;;;;;27.18;27.46;100192.78;4494561;31;33407;-59
2022/07/19 06:51:05;;;;;;;4.18;1.80;;;;;;;27.10;26.33;100187.50;4496345;31;34724;-60
2022/07/19 06:53:33;;;;;;;7.95;1.80;;;;;;;26.89;27.61;100188.53;4482750;31;34012;-60
2022/07/19 06:56:01;;;;;;;5.93;1.73;;;;;;;27.13;28.09;100184.31;4495837;31;33990;-61
2022/07/19 06:58:29;;;;;;;5.75;1.42;;;;;;;27.08;26.88;100181.34;4495949;31;31967;-59
2022/07/19 07:00:57;;;;;;;5.80;2.40;;;;;;;27.17;27.59;100183.72;4494473;31;33724;-60
2022/07/19 07:03:25;;;;;;;10.55;2.33;;;;;;;27.40;27.06;100185.16;4494391;31;32939;-59
2022/07/19 07:05:52;;;;;;;8.60;1.50;;;;;;;27.53;25.83;100185.13;4497243;31;34106;-60
2022/07/19 07:08:20;;;;;;;3.35;1.37;;;;;;;27.80;26.72;100183.19;4497788;31;33557;-62
2022/07/19 07:10:48;;;;;;;3.90;1.45;;;;;;;27.95;26.13;100180.16;4499212;31;34112;-59
2022/07/19 07:13:15;;;;;;;3.37;1.45;;;;;;;28.10;25.19;100177.16;4492746;31;32534;-59
2022/07/19 07:15:43;;;;;;;4.30;1.23;;;;;;;27.94;25.24;100169.41;4499049;31;33826;-60
2022/07/19 07:18:11;;;;;;;3.87;1.10;;;;;;;28.13;25.35;100171.22;4495417;31;34775;-59
2022/07/19 07:20:39;;;;;;;7.07;1.70;;;;;;;28.32;24.72;100162.00;4495689;31;34060;-59
2022/07/19 07:23:06;;;;;;;6.45;1.80;;;;;;;27.99;24.93;100164.91;4495977;31;35240;-61
2022/07/19 07:25:34;;;;;;;10.05;1.42;;;;;;;28.36;25.35;100167.06;4499220;31;33173;-61
2022/07/19 07:28:02;;;;;;;4.28;1.25;;;;;;;28.40;25.50;100171.09;4486564;31;32109;-62
2022/07/19 07:30:29;;;;;;;6.37;1.67;;;;;;;28.58;25.90;100168.44;4486647;31;33839;-60
2022/07/19 07:32:57;;;;;;;4.70;1.40;;;;;;;29.01;23.91;100165.78;4494693;31;32806;-59
2022/07/19 07:35:25;;;;;;;3.03;1.30;;;;;;;29.08;22.81;100165.72;4497386;31;34050;-59
2022/07/19 07:37:53;;;;;;;2.53;1.10;;;;;;;28.55;22.85;100155.94;4492906;31;33328;-60
2022/07/19 07:40:20;;;;;;;5.10;1.70;;;;;;;28.88;23.55;100156.75;4497809;31;33942;-60
2022/07/19 07:42:48;;;;;;;4.47;1.20;;;;;;;29.42;23.85;100153.31;4499944;31;35134;-62
2022/07/19 07:45:15;;;;;;;5.50;1.45;;;;;;;29.44;23.26;100151.19;4499973;31;34002;-60
2022/07/19 07:47:43;;;;;;;4.40;1.23;;;;;;;29.49;21.82;100148.56;4495895;31;33462;-62
2022/07/19 07:50:11;;;;;;;4.18;1.42;;;;;;;29.42;21.93;100153.31;4496461;31;34945;-60
2022/07/19 07:52:39;;;;;;;6.85;1.27;;;;;;;29.54;21.36;100158.09;4497066;31;33918;-60
2022/07/19 07:55:07;;;;;;;3.87;1.20;;;;;;;28.98;22.31;100157.94;4490804;31;34219;-61
2022/07/19 07:57:55;;;;;;;5.47;1.10;;;;;;;29.50;21.45;100152.16;4498585;31;33715;-60
2022/07/19 08:00:23;;;;;;;3.20;1.08;;;;;;;29.87;21.19;100157.72;4497935;31;33986;-60
2022/07/19 08:02:50;;;;;;;3.20;1.30;;;;;;;29.97;21.88;100158.00;4497901;31;33795;-62
2022/07/19 08:05:23;;;;;;;5.15;1.50;;;;;;;30.21;22.06;100150.72;4497458;31;35132;-60
2022/07/19 08:07:52;;;;;;;4.78;1.25;;;;;;;30.31;21.42;100152.94;4497497;31;33731;-59
2022/07/19 08:10:25;;;;;;;2.60;1.15;;;;;;;30.12;20.68;100155.69;4487711;31;32524;-59
2022/07/19 08:12:53;;;;;;;2.45;1.00;;;;;;;30.12;21.17;100155.69;4494370;31;32419;-61
2022/07/19 08:15:21;;;;;;;2.28;0.93;;;;;;;30.16;20.68;100154.12;4495841;31;32764;-59
2022/07/19 08:17:49;;;;;;;4.25;1.20;;;;;;;29.84;21.30;100153.50;4497944;31;33392;-61
2022/07/19 08:20:17;;;;;;;5.15;1.15;;;;;;;30.13;21.63;100148.25;4497616;31;34818;-61
2022/07/19 08:22:45;;;;;;;2.60;1.30;;;;;;;30.22;21.00;100152.41;4490630;31;33682;-60
2022/07/19 08:25:16;;;;;;;4.57;1.10;;;;;;;30.56;20.76;100144.47;4495623;31;35810;-60
2022/07/19 08:27:44;;;;;;;7.65;1.00;;;;;;;29.96;22.02;100149.97;4482560;31;32035;-62
2022/07/19 08:30:12;;;;;;;2.42;1.10;;;;;;;29.94;21.79;100148.28;4494853;31;34963;-61
2022/07/19 08:32:40;;;;;;;3.25;1.00;;;;;;;30.66;21.08;100154.94;4485630;31;32501;-60
2022/07/19 08:35:09;;;;;;;1.83;0.95;;;;;;;30.85;20.30;100142.75;4484316;31;32838;-60
2022/07/19 08:37:37;;;;;;;5.18;1.40;;;;;;;31.15;21.40;100150.97;4495399;31;33633;-60
2022/07/19 08:40:06;;;;;;;2.95;1.25;;;;;;;30.95;20.62;100142.16;4500880;31;33921;-60
2022/07/19 08:42:34;;;;;;;5.80;0.98;;;;;;;30.99;20.18;100144.22;4500391;31;32435;-61
2022/07/19 08:45:07;;;;;;;2.72;1.00;;;;;;;31.16;19.99;100146.25;4484039;31;33760;-62
2022/07/19 08:47:36;;;;;;;2.20;1.17;;;;;;;31.12;20.00;100145.06;4500053;31;34737;-61
2022/07/19 08:50:07;;;;;;;3.42;1.02;;;;;;;31.07;20.26;100145.78;4485553;31;33379;-60
2022/07/19 08:52:35;;;;;;;1.73;0.90;;;;;;;31.28;20.25;100144.34;4498777;31;32832;-60
2022/07/19 08:55:04;;;;;;;1.83;0.70;;;;;;;31.58;20.16;100137.84;4497897;31;34185;-61
2022/07/19 09:00:18;;;;;;;3.58;1.48;;;;;;;31.05;20.82;100134.97;4498570;31;32494;-58
2022/07/19 09:02:57;;;;;;;5.03;1.27;;;;;;;31.63;20.18;100137.97;4499541;31;34175;-59
2022/07/19 09:05:26;;;;;;;2.60;1.02;;;;;;;31.43;20.44;100133.66;4498289;31;33838;-59
2022/07/19 09:08:06;;;;;;;3.03;1.05;;;;;;;31.69;19.89;100131.47;4500624;31;33589;-59
2022/07/19 09:10:37;;;;;;;5.30;1.60;;;;;;;31.32;19.99;100138.06;4498163;31;33622;-59
2022/07/19 09:13:13;;;;;;;3.05;1.05;;;;;;;31.48;20.35;100135.69;4498766;31;32966;-59
2022/07/19 09:15:45;;;;;;;5.43;1.20;;;;;;;31.30;20.37;100129.19;4497057;31;33896;-60
2022/07/19 09:18:13;;;;;;;3.35;1.33;;;;;;;31.59;20.13;100131.22;4499843;31;34125;-60
2022/07/19 09:20:41;;;;;;;3.42;1.45;;;;;;;31.65;19.18;100128.31;4488546;31;32333;-60
2022/07/19 09:23:09;;;;;;;4.43;1.10;;;;;;;31.81;19.31;100129.47;4493145;31;35156;-59
2022/07/19 09:25:49;;;;;;;2.67;1.15;;;;;;;31.82;19.89;100120.12;4489479;31;33248;-61
2022/07/19 09:28:19;;;;;;;2.62;1.17;;;;;;;32.12;19.40;100124.59;4497151;31;33678;-59
2022/07/19 09:30:49;;;;;;;5.37;1.52;;;;;;;32.18;20.09;100130.00;4495752;31;35064;-59
2022/07/19 09:33:18;;;;;;;4.87;1.35;;;;;;;32.63;19.92;100126.41;4497729;31;35216;-60
2022/07/19 09:35:51;;;;;;;2.83;0.90;;;;;;;32.77;19.56;100123.31;4495389;31;34013;-60
2022/07/19 09:38:21;;;;;;;3.08;1.17;;;;;;;32.96;19.19;100121.94;4493796;31;32068;-60
2022/07/19 09:40:51;;;;;;;5.32;1.17;;;;;;;32.80;19.28;100131.13;4493726;31;34262;-60
2022/07/19 09:43:22;;;;;;;3.78;1.20;;;;;;;32.87;18.60;100121.56;4498277;31;33880;-59
2022/07/19 09:46:33;;;;;;;6.03;1.60;;;;;;;32.75;19.40;100128.28;4492781;31;32830;-59
2022/07/19 09:49:09;;;;;;;6.50;1.40;;;;;;;32.69;18.47;100125.41;4495404;31;32593;-60
2022/07/19 09:51:41;;;;;;;2.53;1.10;;;;;;;32.02;19.21;100119.72;4498595;31;36345;-61
2022/07/19 09:54:11;;;;;;;3.75;1.10;;;;;;;32.97;18.37;100109.81;4487789;31;32731;-59
2022/07/19 09:56:42;;;;;;;4.47;1.40;;;;;;;32.63;18.72;100122.78;4496427;31;33484;-60
2022/07/19 09:59:10;;;;;;;3.90;1.00;;;;;;;32.80;19.20;100104.22;4499183;31;34520;-62
2022/07/19 10:01:38;;;;;;;3.42;1.30;;;;;;;32.86;19.28;100117.09;4489652;31;34950;-59
2022/07/19 10:04:09;;;;;;;3.08;1.00;;;;;;;33.09;18.86;100113.31;4486684;31;33775;-60
2022/07/19 10:06:38;;;;;;;2.83;1.12;;;;;;;33.04;18.60;100110.47;4499943;31;34171;-62
2022/07/19 10:09:08;;;;;;;4.50;1.30;;;;;;;33.84;17.92;100103.53;4498924;31;32467;-61
2022/07/19 10:11:36;;;;;;;4.07;1.17;;;;;;;34.06;17.92;100109.09;4500710;31;33759;-59
2022/07/19 10:14:04;;;;;;;2.78;1.58;;;;;;;33.74;18.23;100108.13;4501495;31;32835;-60
2022/07/19 10:17:04;;;;;;;3.10;1.15;;;;;;;33.74;18.21;100110.88;4499939;31;35282;-61
2022/07/19 10:19:39;;;;;;;3.72;1.20;;;;;;;33.78;18.40;100098.19;4481045;31;32141;-62
2022/07/19 10:22:12;;;;;;;4.28;1.60;;;;;;;34.84;16.68;100097.63;4495351;31;33720;-60
2022/07/19 10:24:54;;;;;;;2.75;1.30;;;;;;;35.04;17.26;100096.97;4494436;31;32776;-61
2022/07/19 10:27:36;;;;;;;2.67;1.20;;;;;;;34.44;16.75;100100.84;4494327;31;34257;-60
2022/07/19 10:30:09;;;;;;;3.87;1.20;;;;;;;34.47;16.89;100098.37;4499186;31;33671;-62
2022/07/19 10:32:47;;;;;;;4.03;1.60;;;;;;;34.27;17.33;100090.69;4499102;31;34107;-60
2022/07/19 10:35:27;;;;;;;5.30;1.20;;;;;;;33.90;17.83;100089.72;4494213;31;35526;-60
2022/07/19 10:37:55;;;;;;;3.33;1.33;;;;;;;33.69;18.08;100086.69;4500649;31;34444;-61
2022/07/19 10:40:46;;;;;;;3.37;1.37;;;;;;;33.94;17.34;100085.34;4499522;31;33630;-60
2022/07/19 10:43:20;;;;;;;5.25;1.00;;;;;;;34.35;17.16;100080.22;4490756;31;32611;-61
2022/07/19 10:45:57;;;;;;;;;;;;;;;34.09;17.68;100082.72;4497844;31;32916;-62
2022/07/19 10:48:50;;;;;;;2.42;1.05;;;;;;;34.62;17.08;100074.66;4499310;31;34609;-60
2022/07/19 10:51:27;;;;;;;4.07;1.58;;;;;;;34.27;17.54;100079.59;4496363;31;33550;-61
2022/07/19 10:54:06;;;;;;;3.50;1.35;;;;;;;34.64;17.49;100067.72;4499666;31;34630;-59
2022/07/19 10:56:42;;;;;;;3.97;1.20;;;;;;;34.56;17.51;100065.44;4498088;31;34196;-59
2022/07/19 10:59:34;;;;;;;5.43;1.58;;;;;;;34.78;17.78;100073.66;4494227;31;33845;-59
2022/07/19 11:02:03;;;;;;;3.33;1.25;;;;;;;34.82;17.42;100066.47;4492213;31;33439;-60
2022/07/19 11:04:51;;;;;;;2.75;1.05;;;;;;;34.06;17.70;100063.81;4495851;31;33758;-61
2022/07/19 11:07:21;;;;;;;1.67;0.80;;;;;;;34.65;17.49;100065.78;4495192;31;34186;-60
2022/07/19 11:09:51;;;;;;;3.72;1.30;;;;;;;34.96;17.24;100062.12;4494986;31;32422;-58
2022/07/19 11:12:50;;;;;;;5.05;1.40;;;;;;;35.29;17.13;100060.13;4487704;31;32238;-60
2022/07/19 11:15:18;;;;;;;3.62;1.17;;;;;;;33.68;17.86;100065.59;4487078;31;34579;-60
2022/07/19 11:17:57;;;;;;;4.03;1.40;;;;;;;34.14;17.11;100062.53;4494818;31;34800;-62
2022/07/19 11:20:27;;;;;;;5.57;1.58;;;;;;;34.77;16.90;100049.75;4483336;31;35406;-62
2022/07/19 11:22:56;;;;;;;2.75;1.33;;;;;;;33.85;17.78;100049.69;4489712;31;32351;-60
2022/07/19 11:25:28;;;;;;;6.03;0.95;;;;;;;34.37;17.64;100053.84;4487847;31;33769;-62
2022/07/19 11:27:57;;;;;;;4.12;1.50;;;;;;;34.41;17.02;100046.66;4496702;31;32652;-59
2022/07/19 11:30:26;;;;;;;7.22;1.73;;;;;;;34.26;18.46;100035.41;4498095;31;34254;-60
2022/07/19 11:32:59;;;;;;;2.42;1.10;;;;;;;34.65;16.92;100038.00;4496860;31;33330;-61
2022/07/19 11:35:27;;;;;;;3.90;1.27;;;;;;;34.98;16.84;100040.44;4496231;31;33805;-60
2022/07/19 11:37:57;;;;;;;2.87;1.10;;;;;;;34.89;16.54;100033.69;4496068;31;35192;-59